sensor_id;sensor_type;location;lat;lon;timestamp;temperature;humidity
7399;DHT22;3740;50.700;7.184;2023-08-08T00:02:15;14.40;99.90
7399;DHT22;3740;50.700;7.184;2023-08-08T00:04:41;14.40;99.90
7399;DHT22;3740;50.700;7.184;2023-08-08T00:07:06;14.40;99.90
7399;DHT22;3740;50.700;7.184;2023-08-08T00:09:32;15.20;99.90
7399;DHT22;3740;50.700;7.184;2023-08-08T00:11:58;14.40;99.90
7399;DHT22;3740;50.700;7.184;2023-08-08T00:14:24;14.40;99.90
7399;DHT22;3740;50.700;7.184;2023-08-08T00:16:49;14.40;99.90
7399;DHT22;3740;50.700;7.184;2023-08-08T00:19:15;14.40;99.90
7399;DHT22;3740;50.700;7.184;2023-08-08T00:21:41;14.40;99.90
7399;DHT22;3740;50.700;7.184;2023-08-08T00:24:06;14.40;99.90
7399;DHT22;3740;50.700;7.184;2023-08-08T00:26:32;14.50;99.90
7399;DHT22;3740;50.700;7.184;2023-08-08T00:28:57;14.50;99.90
7399;DHT22;3740;50.700;7.184;2023-08-08T00:31:23;14.50;99.90
7399;DHT22;3740;50.700;7.184;2023-08-08T00:33:48;14.50;99.90
7399;DHT22;3740;50.700;7.184;2023-08-08T00:36:14;14.50;99.90
7399;DHT22;3740;50.700;7.184;2023-08-08T00:38:39;14.60;99.90
7399;DHT22;3740;50.700;7.184;2023-08-08T00:41:05;14.60;99.90
7399;DHT22;3740;50.700;7.184;2023-08-08T00:43:31;14.60;99.90
7399;DHT22;3740;50.700;7.184;2023-08-08T00:45:57;14.60;99.90
7399;DHT22;3740;50.700;7.184;2023-08-08T00:48:23;14.60;99.90
7399;DHT22;3740;50.700;7.184;2023-08-08T00:50:50;14.50;99.90
7399;DHT22;3740;50.700;7.184;2023-08-08T00:53:17;14.50;99.90
7399;DHT22;3740;50.700;7.184;2023-08-08T00:55:43;14.50;99.90
7399;DHT22;3740;50.700;7.184;2023-08-08T00:58:08;14.50;99.90
7399;DHT22;3740;50.700;7.184;2023-08-08T01:00:34;14.50;99.90
7399;DHT22;3740;50.700;7.184;2023-08-08T01:03:00;14.50;99.90
7399;DHT22;3740;50.700;7.184;2023-08-08T01:05:33;14.50;99.90
7399;DHT22;3740;50.700;7.184;2023-08-08T01:08:04;14.40;99.90
7399;DHT22;3740;50.700;7.184;2023-08-08T01:10:34;14.40;99.90
7399;DHT22;3740;50.700;7.184;2023-08-08T01:13:08;14.40;99.90
7399;DHT22;3740;50.700;7.184;2023-08-08T01:15:36;14.30;99.90
7399;DHT22;3740;50.700;7.184;2023-08-08T01:18:07;14.30;99.90
7399;DHT22;3740;50.700;7.184;2023-08-08T01:20:34;14.30;99.90
7399;DHT22;3740;50.700;7.184;2023-08-08T01:25:53;14.30;99.90
7399;DHT22;3740;50.700;7.184;2023-08-08T01:28:23;14.20;99.90
7399;DHT22;3740;50.700;7.184;2023-08-08T01:30:49;14.20;99.90
7399;DHT22;3740;50.700;7.184;2023-08-08T01:33:14;14.20;99.90
7399;DHT22;3740;50.700;7.184;2023-08-08T01:35:44;14.10;99.90
7399;DHT22;3740;50.700;7.184;2023-08-08T01:38:20;14.10;99.90
7399;DHT22;3740;50.700;7.184;2023-08-08T01:40:47;14.00;99.90
7399;DHT22;3740;50.700;7.184;2023-08-08T01:43:14;14.00;99.90
7399;DHT22;3740;50.700;7.184;2023-08-08T01:45:41;14.00;99.90
7399;DHT22;3740;50.700;7.184;2023-08-08T01:48:09;14.00;99.90
7399;DHT22;3740;50.700;7.184;2023-08-08T01:50:35;13.90;99.90
7399;DHT22;3740;50.700;7.184;2023-08-08T01:53:01;13.80;99.90
7399;DHT22;3740;50.700;7.184;2023-08-08T01:55:26;13.80;99.90
7399;DHT22;3740;50.700;7.184;2023-08-08T01:57:52;13.80;99.90
7399;DHT22;3740;50.700;7.184;2023-08-08T02:00:17;13.80;99.90
7399;DHT22;3740;50.700;7.184;2023-08-08T02:02:43;13.80;99.90
7399;DHT22;3740;50.700;7.184;2023-08-08T02:05:09;13.80;99.90
7399;DHT22;3740;50.700;7.184;2023-08-08T02:07:34;13.80;99.90
7399;DHT22;3740;50.700;7.184;2023-08-08T02:10:00;13.80;99.90
7399;DHT22;3740;50.700;7.184;2023-08-08T02:12:25;13.90;99.90
7399;DHT22;3740;50.700;7.184;2023-08-08T02:14:51;13.80;99.90
7399;DHT22;3740;50.700;7.184;2023-08-08T02:17:16;13.80;99.90
7399;DHT22;3740;50.700;7.184;2023-08-08T02:19:42;13.80;99.90
7399;DHT22;3740;50.700;7.184;2023-08-08T02:22:08;13.80;99.90
7399;DHT22;3740;50.700;7.184;2023-08-08T02:24:34;13.70;99.90
7399;DHT22;3740;50.700;7.184;2023-08-08T02:26:59;13.70;99.90
7399;DHT22;3740;50.700;7.184;2023-08-08T02:29:25;13.70;99.90
7399;DHT22;3740;50.700;7.184;2023-08-08T02:31:50;13.70;99.90
7399;DHT22;3740;50.700;7.184;2023-08-08T02:34:16;13.70;99.90
7399;DHT22;3740;50.700;7.184;2023-08-08T02:36:41;13.70;99.90
7399;DHT22;3740;50.700;7.184;2023-08-08T02:39:07;13.70;99.90
7399;DHT22;3740;50.700;7.184;2023-08-08T02:41:33;13.70;99.90
7399;DHT22;3740;50.700;7.184;2023-08-08T02:43:58;13.70;99.90
7399;DHT22;3740;50.700;7.184;2023-08-08T02:46:24;13.70;99.90
7399;DHT22;3740;50.700;7.184;2023-08-08T02:48:50;13.60;99.90
7399;DHT22;3740;50.700;7.184;2023-08-08T02:51:16;13.60;99.90
7399;DHT22;3740;50.700;7.184;2023-08-08T02:53:41;13.50;99.90
7399;DHT22;3740;50.700;7.184;2023-08-08T02:56:07;13.50;99.90
7399;DHT22;3740;50.700;7.184;2023-08-08T02:58:32;13.60;99.90
7399;DHT22;3740;50.700;7.184;2023-08-08T03:00:58;13.60;99.90
7399;DHT22;3740;50.700;7.184;2023-08-08T03:03:23;13.50;99.90
7399;DHT22;3740;50.700;7.184;2023-08-08T03:05:49;13.50;99.90
7399;DHT22;3740;50.700;7.184;2023-08-08T03:08:15;13.50;99.90
7399;DHT22;3740;50.700;7.184;2023-08-08T03:10:40;13.50;99.90
7399;DHT22;3740;50.700;7.184;2023-08-08T03:13:06;13.50;99.90
7399;DHT22;3740;50.700;7.184;2023-08-08T03:15:32;13.50;99.90
7399;DHT22;3740;50.700;7.184;2023-08-08T03:17:58;13.50;99.90
7399;DHT22;3740;50.700;7.184;2023-08-08T03:20:23;13.40;99.90
7399;DHT22;3740;50.700;7.184;2023-08-08T03:22:49;13.40;99.90
7399;DHT22;3740;50.700;7.184;2023-08-08T03:25:14;13.40;99.90
7399;DHT22;3740;50.700;7.184;2023-08-08T03:27:41;13.40;99.90
7399;DHT22;3740;50.700;7.184;2023-08-08T03:30:07;13.40;99.90
7399;DHT22;3740;50.700;7.184;2023-08-08T03:32:33;13.40;99.90
7399;DHT22;3740;50.700;7.184;2023-08-08T03:34:58;13.30;99.90
7399;DHT22;3740;50.700;7.184;2023-08-08T03:37:24;13.30;99.90
7399;DHT22;3740;50.700;7.184;2023-08-08T03:39:49;13.30;99.90
7399;DHT22;3740;50.700;7.184;2023-08-08T03:42:15;13.40;99.90
7399;DHT22;3740;50.700;7.184;2023-08-08T03:44:41;13.40;99.90
7399;DHT22;3740;50.700;7.184;2023-08-08T03:47:06;13.30;99.90
7399;DHT22;3740;50.700;7.184;2023-08-08T03:49:32;13.30;99.90
7399;DHT22;3740;50.700;7.184;2023-08-08T03:51:58;13.30;99.90
7399;DHT22;3740;50.700;7.184;2023-08-08T03:54:24;13.40;99.90
7399;DHT22;3740;50.700;7.184;2023-08-08T03:56:49;13.50;99.90
7399;DHT22;3740;50.700;7.184;2023-08-08T03:59:15;13.80;99.90
7399;DHT22;3740;50.700;7.184;2023-08-08T04:01:40;13.50;99.90
7399;DHT22;3740;50.700;7.184;2023-08-08T04:04:06;13.50;99.90
7399;DHT22;3740;50.700;7.184;2023-08-08T04:06:31;13.50;99.90
7399;DHT22;3740;50.700;7.184;2023-08-08T04:08:57;13.50;99.90
7399;DHT22;3740;50.700;7.184;2023-08-08T04:11:23;13.50;99.90
7399;DHT22;3740;50.700;7.184;2023-08-08T04:13:48;13.50;99.90
7399;DHT22;3740;50.700;7.184;2023-08-08T04:16:14;13.50;99.90
7399;DHT22;3740;50.700;7.184;2023-08-08T04:18:40;13.50;99.90
7399;DHT22;3740;50.700;7.184;2023-08-08T04:21:05;13.50;99.90
7399;DHT22;3740;50.700;7.184;2023-08-08T04:23:31;13.50;99.90
7399;DHT22;3740;50.700;7.184;2023-08-08T04:25:57;13.50;99.90
7399;DHT22;3740;50.700;7.184;2023-08-08T04:28:22;13.50;99.90
7399;DHT22;3740;50.700;7.184;2023-08-08T04:30:48;13.50;99.90
7399;DHT22;3740;50.700;7.184;2023-08-08T04:33:13;13.40;99.90
7399;DHT22;3740;50.700;7.184;2023-08-08T04:35:39;13.40;99.90
7399;DHT22;3740;50.700;7.184;2023-08-08T04:38:04;13.40;99.90
7399;DHT22;3740;50.700;7.184;2023-08-08T04:40:30;13.40;99.90
7399;DHT22;3740;50.700;7.184;2023-08-08T04:42:55;13.40;99.90
7399;DHT22;3740;50.700;7.184;2023-08-08T04:45:21;13.40;99.90
7399;DHT22;3740;50.700;7.184;2023-08-08T04:47:47;13.40;99.90
7399;DHT22;3740;50.700;7.184;2023-08-08T04:50:13;13.50;99.90
7399;DHT22;3740;50.700;7.184;2023-08-08T04:52:38;13.50;99.90
7399;DHT22;3740;50.700;7.184;2023-08-08T04:55:04;13.60;99.90
7399;DHT22;3740;50.700;7.184;2023-08-08T04:57:30;13.60;99.90
7399;DHT22;3740;50.700;7.184;2023-08-08T04:59:56;13.60;99.90
7399;DHT22;3740;50.700;7.184;2023-08-08T05:02:22;13.70;99.90
7399;DHT22;3740;50.700;7.184;2023-08-08T05:04:47;13.70;99.90
7399;DHT22;3740;50.700;7.184;2023-08-08T05:07:13;13.70;99.90
7399;DHT22;3740;50.700;7.184;2023-08-08T05:09:38;13.70;99.90
7399;DHT22;3740;50.700;7.184;2023-08-08T05:12:04;13.80;99.90
7399;DHT22;3740;50.700;7.184;2023-08-08T05:14:30;13.70;99.90
7399;DHT22;3740;50.700;7.184;2023-08-08T05:16:55;13.70;99.90
7399;DHT22;3740;50.700;7.184;2023-08-08T05:19:21;13.70;99.90
7399;DHT22;3740;50.700;7.184;2023-08-08T05:21:46;13.70;99.90
7399;DHT22;3740;50.700;7.184;2023-08-08T05:24:12;13.70;99.90
7399;DHT22;3740;50.700;7.184;2023-08-08T05:26:38;13.70;99.90
7399;DHT22;3740;50.700;7.184;2023-08-08T05:29:03;13.80;99.90
7399;DHT22;3740;50.700;7.184;2023-08-08T05:31:29;13.70;99.90
7399;DHT22;3740;50.700;7.184;2023-08-08T05:33:54;13.80;99.90
7399;DHT22;3740;50.700;7.184;2023-08-08T05:36:20;13.80;99.90
7399;DHT22;3740;50.700;7.184;2023-08-08T05:38:45;13.80;99.90
7399;DHT22;3740;50.700;7.184;2023-08-08T05:41:11;13.90;99.90
7399;DHT22;3740;50.700;7.184;2023-08-08T05:43:36;13.90;99.90
7399;DHT22;3740;50.700;7.184;2023-08-08T05:46:02;13.90;99.90
7399;DHT22;3740;50.700;7.184;2023-08-08T05:48:28;13.90;99.90
7399;DHT22;3740;50.700;7.184;2023-08-08T05:50:53;13.90;99.90
7399;DHT22;3740;50.700;7.184;2023-08-08T05:53:19;13.90;99.90
7399;DHT22;3740;50.700;7.184;2023-08-08T05:55:44;13.90;99.90
7399;DHT22;3740;50.700;7.184;2023-08-08T05:58:10;14.00;99.90
7399;DHT22;3740;50.700;7.184;2023-08-08T06:00:36;14.00;99.90
7399;DHT22;3740;50.700;7.184;2023-08-08T06:03:01;14.00;99.90
7399;DHT22;3740;50.700;7.184;2023-08-08T06:05:27;14.10;99.90
7399;DHT22;3740;50.700;7.184;2023-08-08T06:07:53;14.10;99.90
7399;DHT22;3740;50.700;7.184;2023-08-08T06:10:20;14.10;99.90
7399;DHT22;3740;50.700;7.184;2023-08-08T06:12:46;14.10;99.90
7399;DHT22;3740;50.700;7.184;2023-08-08T06:15:11;14.10;99.90
7399;DHT22;3740;50.700;7.184;2023-08-08T06:17:37;14.10;99.90
7399;DHT22;3740;50.700;7.184;2023-08-08T06:20:03;14.10;99.90
7399;DHT22;3740;50.700;7.184;2023-08-08T06:22:28;14.20;99.90
7399;DHT22;3740;50.700;7.184;2023-08-08T06:24:54;14.20;99.90
7399;DHT22;3740;50.700;7.184;2023-08-08T06:27:19;14.20;99.90
7399;DHT22;3740;50.700;7.184;2023-08-08T06:29:45;14.30;99.90
7399;DHT22;3740;50.700;7.184;2023-08-08T06:32:10;14.40;99.90
7399;DHT22;3740;50.700;7.184;2023-08-08T06:34:36;14.50;99.90
7399;DHT22;3740;50.700;7.184;2023-08-08T06:37:02;14.70;99.90
7399;DHT22;3740;50.700;7.184;2023-08-08T06:39:27;14.80;99.90
7399;DHT22;3740;50.700;7.184;2023-08-08T06:41:53;14.90;99.90
7399;DHT22;3740;50.700;7.184;2023-08-08T06:44:19;15.00;99.90
7399;DHT22;3740;50.700;7.184;2023-08-08T06:46:45;15.10;99.90
7399;DHT22;3740;50.700;7.184;2023-08-08T06:49:10;15.20;99.90
7399;DHT22;3740;50.700;7.184;2023-08-08T06:51:36;15.20;99.90
7399;DHT22;3740;50.700;7.184;2023-08-08T06:54:01;15.30;99.90
7399;DHT22;3740;50.700;7.184;2023-08-08T06:56:27;15.30;99.90
7399;DHT22;3740;50.700;7.184;2023-08-08T06:58:53;15.40;99.90
7399;DHT22;3740;50.700;7.184;2023-08-08T07:01:19;15.40;99.90
7399;DHT22;3740;50.700;7.184;2023-08-08T07:03:45;15.40;99.90
7399;DHT22;3740;50.700;7.184;2023-08-08T07:06:12;15.40;99.90
7399;DHT22;3740;50.700;7.184;2023-08-08T07:08:37;15.40;99.90
7399;DHT22;3740;50.700;7.184;2023-08-08T07:11:05;15.40;99.90
7399;DHT22;3740;50.700;7.184;2023-08-08T07:13:31;15.40;99.90
7399;DHT22;3740;50.700;7.184;2023-08-08T07:15:57;15.50;99.90
7399;DHT22;3740;50.700;7.184;2023-08-08T07:18:22;15.50;99.90
7399;DHT22;3740;50.700;7.184;2023-08-08T07:20:48;15.50;99.90
7399;DHT22;3740;50.700;7.184;2023-08-08T07:23:15;15.50;99.90
7399;DHT22;3740;50.700;7.184;2023-08-08T07:25:41;15.50;99.90
7399;DHT22;3740;50.700;7.184;2023-08-08T07:28:07;15.60;99.90
7399;DHT22;3740;50.700;7.184;2023-08-08T07:30:34;15.60;99.90
7399;DHT22;3740;50.700;7.184;2023-08-08T07:32:59;15.70;99.90
7399;DHT22;3740;50.700;7.184;2023-08-08T07:35:25;15.70;99.90
7399;DHT22;3740;50.700;7.184;2023-08-08T07:38:00;15.90;99.90
7399;DHT22;3740;50.700;7.184;2023-08-08T07:40:25;16.00;99.90
7399;DHT22;3740;50.700;7.184;2023-08-08T07:42:51;16.10;99.90
7399;DHT22;3740;50.700;7.184;2023-08-08T07:45:17;16.20;99.90
7399;DHT22;3740;50.700;7.184;2023-08-08T07:47:42;16.40;99.90
7399;DHT22;3740;50.700;7.184;2023-08-08T07:50:08;16.50;99.90
7399;DHT22;3740;50.700;7.184;2023-08-08T07:52:35;16.50;99.90
7399;DHT22;3740;50.700;7.184;2023-08-08T07:55:01;16.60;99.90
7399;DHT22;3740;50.700;7.184;2023-08-08T07:57:27;16.70;99.90
7399;DHT22;3740;50.700;7.184;2023-08-08T07:59:52;16.70;99.90
7399;DHT22;3740;50.700;7.184;2023-08-08T08:02:18;16.70;99.90
7399;DHT22;3740;50.700;7.184;2023-08-08T08:04:43;16.90;99.90
7399;DHT22;3740;50.700;7.184;2023-08-08T08:07:09;16.90;99.90
7399;DHT22;3740;50.700;7.184;2023-08-08T08:09:34;16.90;99.90
7399;DHT22;3740;50.700;7.184;2023-08-08T08:12:00;16.90;99.90
7399;DHT22;3740;50.700;7.184;2023-08-08T08:14:26;17.00;99.90
7399;DHT22;3740;50.700;7.184;2023-08-08T08:16:51;17.00;99.90
7399;DHT22;3740;50.700;7.184;2023-08-08T08:19:17;16.90;99.90
7399;DHT22;3740;50.700;7.184;2023-08-08T08:21:42;17.00;99.90
7399;DHT22;3740;50.700;7.184;2023-08-08T08:24:08;17.00;99.90
7399;DHT22;3740;50.700;7.184;2023-08-08T08:26:34;17.10;99.90
7399;DHT22;3740;50.700;7.184;2023-08-08T08:28:59;17.10;99.90
7399;DHT22;3740;50.700;7.184;2023-08-08T08:31:25;17.20;99.90
7399;DHT22;3740;50.700;7.184;2023-08-08T08:33:50;17.20;99.90
7399;DHT22;3740;50.700;7.184;2023-08-08T08:36:16;17.20;99.90
7399;DHT22;3740;50.700;7.184;2023-08-08T08:38:42;17.30;99.90
7399;DHT22;3740;50.700;7.184;2023-08-08T08:41:08;17.30;99.90
7399;DHT22;3740;50.700;7.184;2023-08-08T08:43:38;17.40;99.90
7399;DHT22;3740;50.700;7.184;2023-08-08T08:46:04;17.60;99.90
7399;DHT22;3740;50.700;7.184;2023-08-08T08:48:30;17.60;99.90
7399;DHT22;3740;50.700;7.184;2023-08-08T08:50:56;17.60;99.90
7399;DHT22;3740;50.700;7.184;2023-08-08T08:53:23;17.70;99.90
7399;DHT22;3740;50.700;7.184;2023-08-08T08:55:49;17.70;99.90
7399;DHT22;3740;50.700;7.184;2023-08-08T08:58:15;17.80;99.90
7399;DHT22;3740;50.700;7.184;2023-08-08T09:00:44;17.90;99.90
7399;DHT22;3740;50.700;7.184;2023-08-08T09:03:12;17.80;99.90
7399;DHT22;3740;50.700;7.184;2023-08-08T09:05:39;17.90;99.90
7399;DHT22;3740;50.700;7.184;2023-08-08T09:08:07;17.90;99.90
7399;DHT22;3740;50.700;7.184;2023-08-08T09:10:33;17.80;99.90
7399;DHT22;3740;50.700;7.184;2023-08-08T09:13:00;17.80;99.90
7399;DHT22;3740;50.700;7.184;2023-08-08T09:15:31;17.90;99.90
7399;DHT22;3740;50.700;7.184;2023-08-08T09:17:57;17.90;99.90
7399;DHT22;3740;50.700;7.184;2023-08-08T09:20:23;18.10;99.90
7399;DHT22;3740;50.700;7.184;2023-08-08T09:22:52;18.30;99.90
7399;DHT22;3740;50.700;7.184;2023-08-08T09:25:18;18.20;99.90
7399;DHT22;3740;50.700;7.184;2023-08-08T09:27:44;18.40;99.90
7399;DHT22;3740;50.700;7.184;2023-08-08T09:30:11;18.60;99.90
7399;DHT22;3740;50.700;7.184;2023-08-08T09:32:37;18.60;99.90
7399;DHT22;3740;50.700;7.184;2023-08-08T09:35:03;18.60;99.90
7399;DHT22;3740;50.700;7.184;2023-08-08T09:37:29;18.70;99.90
7399;DHT22;3740;50.700;7.184;2023-08-08T09:40:03;18.80;99.90
7399;DHT22;3740;50.700;7.184;2023-08-08T09:42:33;18.90;99.90
7399;DHT22;3740;50.700;7.184;2023-08-08T09:45:00;18.90;99.90
7399;DHT22;3740;50.700;7.184;2023-08-08T09:47:27;18.90;99.90
7399;DHT22;3740;50.700;7.184;2023-08-08T09:50:02;18.70;99.90
7399;DHT22;3740;50.700;7.184;2023-08-08T09:52:30;18.60;99.90
7399;DHT22;3740;50.700;7.184;2023-08-08T09:54:56;18.60;99.90
7399;DHT22;3740;50.700;7.184;2023-08-08T09:57:22;18.50;99.90
7399;DHT22;3740;50.700;7.184;2023-08-08T09:59:48;18.60;99.90
7399;DHT22;3740;50.700;7.184;2023-08-08T10:02:15;18.60;99.90
7399;DHT22;3740;50.700;7.184;2023-08-08T10:04:41;18.70;99.90
7399;DHT22;3740;50.700;7.184;2023-08-08T10:07:07;18.90;99.90
7399;DHT22;3740;50.700;7.184;2023-08-08T10:09:33;19.00;99.90
7399;DHT22;3740;50.700;7.184;2023-08-08T10:11:59;19.00;99.90
7399;DHT22;3740;50.700;7.184;2023-08-08T10:14:32;19.20;99.90
7399;DHT22;3740;50.700;7.184;2023-08-08T10:16:58;19.30;99.90
7399;DHT22;3740;50.700;7.184;2023-08-08T10:19:23;18.80;99.90
7399;DHT22;3740;50.700;7.184;2023-08-08T10:21:57;19.00;99.90
7399;DHT22;3740;50.700;7.184;2023-08-08T10:24:23;19.30;99.90
7399;DHT22;3740;50.700;7.184;2023-08-08T10:26:54;19.40;99.90
7399;DHT22;3740;50.700;7.184;2023-08-08T10:29:20;19.20;99.90
7399;DHT22;3740;50.700;7.184;2023-08-08T10:32:00;19.10;99.90
7399;DHT22;3740;50.700;7.184;2023-08-08T10:34:43;19.10;99.90
7399;DHT22;3740;50.700;7.184;2023-08-08T10:37:10;19.30;99.90
7399;DHT22;3740;50.700;7.184;2023-08-08T10:39:37;19.20;99.90
7399;DHT22;3740;50.700;7.184;2023-08-08T10:42:05;19.20;99.90
7399;DHT22;3740;50.700;7.184;2023-08-08T10:44:31;19.30;99.90
7399;DHT22;3740;50.700;7.184;2023-08-08T10:46:57;19.00;99.90
7399;DHT22;3740;50.700;7.184;2023-08-08T10:49:23;19.10;99.90
7399;DHT22;3740;50.700;7.184;2023-08-08T10:51:50;19.20;99.90
7399;DHT22;3740;50.700;7.184;2023-08-08T10:54:21;19.20;99.90
7399;DHT22;3740;50.700;7.184;2023-08-08T10:56:52;19.40;99.90
7399;DHT22;3740;50.700;7.184;2023-08-08T10:59:47;19.50;99.90
7399;DHT22;3740;50.700;7.184;2023-08-08T11:02:14;19.30;99.90
7399;DHT22;3740;50.700;7.184;2023-08-08T11:04:40;19.40;99.90
7399;DHT22;3740;50.700;7.184;2023-08-08T11:07:06;19.50;99.90
7399;DHT22;3740;50.700;7.184;2023-08-08T11:09:32;19.60;99.90
7399;DHT22;3740;50.700;7.184;2023-08-08T11:11:58;19.80;99.90
7399;DHT22;3740;50.700;7.184;2023-08-08T11:14:23;19.60;99.90
7399;DHT22;3740;50.700;7.184;2023-08-08T11:16:50;19.80;99.90
7399;DHT22;3740;50.700;7.184;2023-08-08T11:19:17;19.70;99.90
7399;DHT22;3740;50.700;7.184;2023-08-08T11:21:45;19.60;99.90
7399;DHT22;3740;50.700;7.184;2023-08-08T11:24:12;19.50;99.90
7399;DHT22;3740;50.700;7.184;2023-08-08T11:26:39;19.50;99.90
7399;DHT22;3740;50.700;7.184;2023-08-08T11:29:06;19.40;99.90
7399;DHT22;3740;50.700;7.184;2023-08-08T11:31:32;19.30;99.90
7399;DHT22;3740;50.700;7.184;2023-08-08T11:33:59;19.30;99.90
7399;DHT22;3740;50.700;7.184;2023-08-08T11:36:26;19.30;99.90
7399;DHT22;3740;50.700;7.184;2023-08-08T11:38:54;19.20;99.90
7399;DHT22;3740;50.700;7.184;2023-08-08T11:41:22;19.10;99.90
7399;DHT22;3740;50.700;7.184;2023-08-08T11:43:50;18.90;99.90
7399;DHT22;3740;50.700;7.184;2023-08-08T11:46:16;19.00;99.90
7399;DHT22;3740;50.700;7.184;2023-08-08T11:48:42;19.20;99.90
7399;DHT22;3740;50.700;7.184;2023-08-08T11:51:08;19.40;99.90
7399;DHT22;3740;50.700;7.184;2023-08-08T11:53:35;19.80;99.90
7399;DHT22;3740;50.700;7.184;2023-08-08T11:56:04;20.30;99.90
7399;DHT22;3740;50.700;7.184;2023-08-08T11:58:29;20.20;99.90
7399;DHT22;3740;50.700;7.184;2023-08-08T12:00:58;19.80;99.90
7399;DHT22;3740;50.700;7.184;2023-08-08T12:03:27;19.50;99.90
7399;DHT22;3740;50.700;7.184;2023-08-08T12:05:52;19.30;99.90
7399;DHT22;3740;50.700;7.184;2023-08-08T12:08:19;18.80;99.90
7399;DHT22;3740;50.700;7.184;2023-08-08T12:10:50;18.80;99.90
7399;DHT22;3740;50.700;7.184;2023-08-08T12:13:22;18.80;99.90
7399;DHT22;3740;50.700;7.184;2023-08-08T12:15:48;18.80;99.90
7399;DHT22;3740;50.700;7.184;2023-08-08T12:18:18;18.80;99.90
7399;DHT22;3740;50.700;7.184;2023-08-08T12:20:44;19.00;99.90
7399;DHT22;3740;50.700;7.184;2023-08-08T12:23:09;19.30;99.90
7399;DHT22;3740;50.700;7.184;2023-08-08T12:25:35;19.40;99.90
7399;DHT22;3740;50.700;7.184;2023-08-08T12:28:02;19.20;99.90
7399;DHT22;3740;50.700;7.184;2023-08-08T12:30:27;19.20;99.90
7399;DHT22;3740;50.700;7.184;2023-08-08T12:32:53;19.10;99.90
7399;DHT22;3740;50.700;7.184;2023-08-08T12:35:19;19.10;99.90
7399;DHT22;3740;50.700;7.184;2023-08-08T12:37:46;19.30;99.90
7399;DHT22;3740;50.700;7.184;2023-08-08T12:40:12;19.30;99.90
7399;DHT22;3740;50.700;7.184;2023-08-08T12:42:37;19.40;99.90
7399;DHT22;3740;50.700;7.184;2023-08-08T12:45:03;19.40;99.90
7399;DHT22;3740;50.700;7.184;2023-08-08T12:47:29;19.40;99.90
7399;DHT22;3740;50.700;7.184;2023-08-08T12:49:55;19.40;99.90
7399;DHT22;3740;50.700;7.184;2023-08-08T12:52:20;19.40;99.90
7399;DHT22;3740;50.700;7.184;2023-08-08T12:54:46;19.30;99.90
7399;DHT22;3740;50.700;7.184;2023-08-08T12:57:11;19.30;99.90
7399;DHT22;3740;50.700;7.184;2023-08-08T12:59:37;19.00;99.90
7399;DHT22;3740;50.700;7.184;2023-08-08T13:02:03;19.00;99.90
7399;DHT22;3740;50.700;7.184;2023-08-08T13:04:28;18.80;99.90
7399;DHT22;3740;50.700;7.184;2023-08-08T13:06:54;18.70;99.90
7399;DHT22;3740;50.700;7.184;2023-08-08T13:09:19;18.60;99.90
7399;DHT22;3740;50.700;7.184;2023-08-08T13:11:45;18.50;99.90
7399;DHT22;3740;50.700;7.184;2023-08-08T13:14:11;18.50;99.90
7399;DHT22;3740;50.700;7.184;2023-08-08T13:16:36;18.40;99.90
7399;DHT22;3740;50.700;7.184;2023-08-08T13:19:02;18.40;99.90
7399;DHT22;3740;50.700;7.184;2023-08-08T13:21:28;18.30;99.90
7399;DHT22;3740;50.700;7.184;2023-08-08T13:23:54;18.30;99.90
7399;DHT22;3740;50.700;7.184;2023-08-08T13:26:20;18.30;99.90
7399;DHT22;3740;50.700;7.184;2023-08-08T13:28:45;18.30;99.90
7399;DHT22;3740;50.700;7.184;2023-08-08T13:31:11;18.30;99.90
7399;DHT22;3740;50.700;7.184;2023-08-08T13:33:37;18.30;99.90
7399;DHT22;3740;50.700;7.184;2023-08-08T13:36:02;18.30;99.90
7399;DHT22;3740;50.700;7.184;2023-08-08T13:38:28;18.40;99.90
7399;DHT22;3740;50.700;7.184;2023-08-08T13:40:54;18.40;99.90
7399;DHT22;3740;50.700;7.184;2023-08-08T13:43:20;18.40;99.90
7399;DHT22;3740;50.700;7.184;2023-08-08T13:45:45;18.40;99.90
7399;DHT22;3740;50.700;7.184;2023-08-08T13:48:11;18.40;99.90
7399;DHT22;3740;50.700;7.184;2023-08-08T13:50:37;18.40;99.90
7399;DHT22;3740;50.700;7.184;2023-08-08T13:53:02;18.50;99.90
7399;DHT22;3740;50.700;7.184;2023-08-08T13:55:29;18.60;99.90
7399;DHT22;3740;50.700;7.184;2023-08-08T13:57:54;18.70;99.90
7399;DHT22;3740;50.700;7.184;2023-08-08T14:00:21;18.70;99.90
7399;DHT22;3740;50.700;7.184;2023-08-08T14:02:47;18.70;99.90
7399;DHT22;3740;50.700;7.184;2023-08-08T14:05:12;18.60;99.90
7399;DHT22;3740;50.700;7.184;2023-08-08T14:07:38;18.40;99.90
7399;DHT22;3740;50.700;7.184;2023-08-08T14:10:04;18.30;99.90
7399;DHT22;3740;50.700;7.184;2023-08-08T14:12:30;18.20;99.90
7399;DHT22;3740;50.700;7.184;2023-08-08T14:14:56;18.20;99.90
7399;DHT22;3740;50.700;7.184;2023-08-08T14:17:22;18.20;99.90
7399;DHT22;3740;50.700;7.184;2023-08-08T14:19:47;18.40;99.90
7399;DHT22;3740;50.700;7.184;2023-08-08T14:22:13;18.50;99.90
7399;DHT22;3740;50.700;7.184;2023-08-08T14:24:39;18.50;99.90
7399;DHT22;3740;50.700;7.184;2023-08-08T14:27:04;18.50;99.90
7399;DHT22;3740;50.700;7.184;2023-08-08T14:29:31;18.60;99.90
7399;DHT22;3740;50.700;7.184;2023-08-08T14:31:56;18.80;99.90
7399;DHT22;3740;50.700;7.184;2023-08-08T14:34:32;19.10;99.90
7399;DHT22;3740;50.700;7.184;2023-08-08T14:36:59;19.20;99.90
7399;DHT22;3740;50.700;7.184;2023-08-08T14:39:25;19.20;99.90
7399;DHT22;3740;50.700;7.184;2023-08-08T14:41:51;19.20;99.90
7399;DHT22;3740;50.700;7.184;2023-08-08T14:44:17;19.10;99.90
7399;DHT22;3740;50.700;7.184;2023-08-08T14:46:43;19.00;99.90
7399;DHT22;3740;50.700;7.184;2023-08-08T14:49:09;18.80;99.90
7399;DHT22;3740;50.700;7.184;2023-08-08T14:51:35;18.80;99.90
7399;DHT22;3740;50.700;7.184;2023-08-08T14:54:01;18.70;99.90
7399;DHT22;3740;50.700;7.184;2023-08-08T14:56:29;18.50;99.90
7399;DHT22;3740;50.700;7.184;2023-08-08T14:58:55;18.40;99.90
7399;DHT22;3740;50.700;7.184;2023-08-08T15:01:21;18.40;99.90
7399;DHT22;3740;50.700;7.184;2023-08-08T15:03:47;18.40;99.90
7399;DHT22;3740;50.700;7.184;2023-08-08T15:06:12;18.60;99.90
7399;DHT22;3740;50.700;7.184;2023-08-08T15:08:38;18.80;99.90
7399;DHT22;3740;50.700;7.184;2023-08-08T15:11:03;18.80;99.90
7399;DHT22;3740;50.700;7.184;2023-08-08T15:13:29;18.90;99.90
7399;DHT22;3740;50.700;7.184;2023-08-08T15:15:55;19.10;99.90
7399;DHT22;3740;50.700;7.184;2023-08-08T15:18:20;19.10;99.90
7399;DHT22;3740;50.700;7.184;2023-08-08T15:20:46;19.00;99.90
7399;DHT22;3740;50.700;7.184;2023-08-08T15:23:11;19.00;99.90
7399;DHT22;3740;50.700;7.184;2023-08-08T15:25:40;18.90;99.90
7399;DHT22;3740;50.700;7.184;2023-08-08T15:28:07;19.00;99.90
7399;DHT22;3740;50.700;7.184;2023-08-08T15:30:33;19.00;99.90
7399;DHT22;3740;50.700;7.184;2023-08-08T15:32:59;19.10;99.90
7399;DHT22;3740;50.700;7.184;2023-08-08T15:35:24;19.00;99.90
7399;DHT22;3740;50.700;7.184;2023-08-08T15:37:50;18.90;99.90
7399;DHT22;3740;50.700;7.184;2023-08-08T15:40:16;18.90;99.90
7399;DHT22;3740;50.700;7.184;2023-08-08T15:42:41;18.80;99.90
7399;DHT22;3740;50.700;7.184;2023-08-08T15:45:09;18.80;99.90
7399;DHT22;3740;50.700;7.184;2023-08-08T15:47:35;18.90;99.90
7399;DHT22;3740;50.700;7.184;2023-08-08T15:50:00;19.00;99.90
7399;DHT22;3740;50.700;7.184;2023-08-08T15:52:26;19.00;99.90
7399;DHT22;3740;50.700;7.184;2023-08-08T15:54:52;19.10;99.90
7399;DHT22;3740;50.700;7.184;2023-08-08T15:57:18;19.20;99.90
7399;DHT22;3740;50.700;7.184;2023-08-08T15:59:44;19.20;99.90